Etusivu
METAR-TAF:

METAR-TAF

Lentoasemat :

Hanford, Kalifornia, Yhdysvallat

Leveyspiiri: 36-19-07N, Pituuspiiri: 119-37-44W, korkeus merenpinnasta: 74 m

Tämänhetkinen sää

Tämä raportti tehtiin 10 minuuttia sitten, kello 19.53 UTC
Tuuli 5 kn koillisesta
Lämpötila 11°C
Kosteus 82%
Ilmanpaine 1028 hPa
Näkyvyys: 9.7 km
Pilvistä 400 ft:n korkeudessa
usvaa

METAR: KHJO 231953Z AUTO 05005KT 6SM HZ OVC004 11/08 A3035 RMK AO2 SLP280 T01110078

Aika: 12:03 (20:03 UTC)


TAF: puuttuu

Säähavainnot ja -ennusteet yli 4000 lentoasemalta (METAR- ja TAF-raportit).

Käytössä olevat sääasemat on merkitty karttaan keltaisilla ja punaisilla pisteillä.

Aseta hiiri pisteen päälle nähdäksesi sääaseman nimen.

Klikkaa sitten nähdäksesi säähavainnot ja -ennusteet.

Kartan vaihtaminen: klikkaa mustalla rastilla varustettuja vihreitä pisteitä, niin voit zoomata sisään; viivalla varustettua vihreää pistettä, niin voit zoomata ulos tai vihreitä nuolia, niin pääset viereisille kartoille.


METAR-TAF: